Time;durP1;ratioP1;P1;durP2;ratioP2;P2;SDS_P1;SDS_P2;PMS_P1;PMS_P2;Temp;Humidity;BMP_temperature;BMP_pressure;BME280_temperature;BME280_humidity;BME280_pressure;Samples;Min_cycle;Max_cycle;Signal;HPM_P1;HPM_P2
2023/06/11 00:01:14;;;;;;;0.00;0.00;;;;;;;17.43;95.54;100680.81;4972319;28;20189;-76
2023/06/11 00:03:40;;;;;;;0.00;0.00;;;;;;;17.44;95.83;100679.66;4954558;28;20683;-75
2023/06/11 00:06:07;;;;;;;0.00;0.00;;;;;;;17.46;95.94;100686.44;4972268;28;20697;-76
2023/06/11 00:08:32;;;;;;;0.03;0.03;;;;;;;17.35;95.87;100687.28;4971567;28;20184;-76
2023/06/11 00:10:57;;;;;;;0.10;0.10;;;;;;;17.39;96.13;100685.44;4972110;28;20189;-76
2023/06/11 00:13:22;;;;;;;0.00;0.00;;;;;;;17.43;96.10;100680.81;4971945;28;20565;-76
2023/06/11 00:15:48;;;;;;;0.00;0.00;;;;;;;17.39;96.18;100690.97;4972244;28;20276;-76
2023/06/11 00:18:14;;;;;;;0.07;0.07;;;;;;;17.40;95.84;100693.38;4971962;28;20257;-76
2023/06/11 00:20:40;;;;;;;0.00;0.00;;;;;;;17.39;95.34;100688.22;4971835;28;20679;-75
2023/06/11 00:23:06;;;;;;;0.00;0.00;;;;;;;17.27;95.22;100683.53;4971872;28;20205;-76
2023/06/11 00:25:32;;;;;;;0.20;0.20;;;;;;;17.31;95.54;100691.91;4972301;28;20670;-76
2023/06/11 00:27:57;;;;;;;0.00;0.00;;;;;;;17.31;95.76;100689.16;4971922;28;20664;-76
2023/06/11 00:30:23;;;;;;;0.10;0.10;;;;;;;17.29;96.14;100697.78;4971649;28;20418;-76
2023/06/11 00:32:48;;;;;;;0.00;0.00;;;;;;;17.20;95.84;100694.34;4971718;28;20216;-76
2023/06/11 00:35:13;;;;;;;0.00;0.00;;;;;;;17.09;95.69;100694.06;4971878;28;20261;-76
2023/06/11 00:37:38;;;;;;;0.23;0.23;;;;;;;16.91;96.65;100689.94;4972585;28;20261;-76
2023/06/11 00:40:04;;;;;;;0.00;0.00;;;;;;;17.02;97.47;100699.34;4971542;28;20569;-75
2023/06/11 00:42:33;;;;;;;0.30;0.30;;;;;;;16.96;97.10;100689.72;4971789;28;20202;-76
2023/06/11 00:45:01;;;;;;;0.00;0.00;;;;;;;16.91;97.26;100685.22;4972027;28;20182;-75
2023/06/11 00:47:26;;;;;;;0.83;0.83;;;;;;;16.90;97.83;100689.13;4971860;28;20264;-74
2023/06/11 00:49:53;;;;;;;0.00;0.00;;;;;;;16.88;97.73;100687.88;4971598;28;20329;-74
2023/06/11 00:52:19;;;;;;;0.47;0.47;;;;;;;16.92;97.59;100689.63;4972339;28;20534;-76
2023/06/11 00:54:45;;;;;;;0.00;0.00;;;;;;;16.90;97.70;100699.38;4970851;28;20177;-76
2023/06/11 00:57:12;;;;;;;0.20;0.20;;;;;;;16.87;98.29;100698.13;4971644;28;20261;-76
2023/06/11 00:59:38;;;;;;;0.77;0.77;;;;;;;16.80;98.10;100695.16;4971858;28;20242;-76
2023/06/11 01:02:16;;;;;;;0.10;0.10;;;;;;;16.81;98.61;100699.53;4954362;28;20202;-76
2023/06/11 01:04:44;;;;;;;0.23;0.23;;;;;;;16.76;98.67;100696.19;4972208;28;20196;-76
2023/06/11 01:07:14;;;;;;;0.00;0.00;;;;;;;16.73;98.98;100703.19;4972063;28;20181;-76
2023/06/11 01:09:42;;;;;;;0.47;0.47;;;;;;;16.69;99.26;100695.97;4971780;28;20174;-76
2023/06/11 01:12:08;;;;;;;0.00;0.00;;;;;;;16.61;99.83;100692.13;4954708;28;20192;-76
2023/06/11 01:14:34;;;;;;;0.03;0.03;;;;;;;16.62;100.00;100697.31;4972204;28;20187;-76
2023/06/11 01:17:04;;;;;;;0.47;0.47;;;;;;;16.58;100.00;100695.59;4972603;28;20260;-75
2023/06/11 01:19:38;;;;;;;0.23;0.23;;;;;;;16.55;100.00;100699.84;4973406;28;20182;-75
2023/06/11 01:22:42;;;;;;;0.00;0.00;;;;;;;16.59;100.00;100695.25;4975742;28;20276;-74
2023/06/11 01:25:37;;;;;;;0.07;0.07;;;;;;;16.50;100.00;100702.84;4938613;28;20576;-76
2023/06/11 01:28:20;;;;;;;1.10;1.10;;;;;;;16.38;100.00;100689.06;4975744;28;20182;-74
2023/06/11 01:30:49;;;;;;;0.03;0.03;;;;;;;16.32;100.00;100701.44;4975551;28;20208;-76
2023/06/11 01:33:18;;;;;;;0.00;0.00;;;;;;;16.28;100.00;100701.34;4957850;28;20214;-76
2023/06/11 01:35:44;;;;;;;0.10;0.10;;;;;;;16.26;100.00;100698.13;4975414;28;20699;-76
2023/06/11 01:38:09;;;;;;;0.93;0.93;;;;;;;16.31;100.00;100700.63;4957831;28;20342;-76
2023/06/11 01:40:35;;;;;;;0.63;0.63;;;;;;;16.25;100.00;100699.28;4957674;28;20273;-75
2023/06/11 01:43:02;;;;;;;0.20;0.20;;;;;;;16.18;100.00;100701.78;4974841;28;20201;-74
2023/06/11 01:45:28;;;;;;;0.00;0.00;;;;;;;16.19;100.00;100706.13;4975342;28;20273;-76
2023/06/11 01:47:54;;;;;;;0.00;0.00;;;;;;;16.19;100.00;100705.34;4957506;28;20193;-76
2023/06/11 01:50:20;;;;;;;0.00;0.00;;;;;;;16.17;100.00;100707.63;4957289;28;20197;-75
2023/06/11 01:52:46;;;;;;;0.00;0.00;;;;;;;16.14;100.00;100708.31;4974779;28;20208;-76
2023/06/11 01:55:12;;;;;;;2.47;2.07;;;;;;;16.09;100.00;100703.03;4974859;28;20185;-75
2023/06/11 01:57:37;;;;;;;0.33;0.33;;;;;;;16.10;100.00;100707.41;4974738;28;20185;-74
2023/06/11 02:00:10;;;;;;;0.10;0.10;;;;;;;16.01;100.00;100700.03;4974454;28;20281;-76
2023/06/11 02:02:40;;;;;;;0.00;0.00;;;;;;;15.92;100.00;100699.34;4958304;28;20217;-75
2023/06/11 02:05:07;;;;;;;0.20;0.20;;;;;;;15.90;100.00;100695.28;4974935;28;20185;-76
2023/06/11 02:07:32;;;;;;;1.50;0.33;;;;;;;15.96;100.00;100693.94;4974752;28;20181;-76
2023/06/11 02:09:58;;;;;;;0.17;0.10;;;;;;;15.87;100.00;100702.28;4974272;28;20182;-74
2023/06/11 02:12:23;;;;;;;0.57;0.57;;;;;;;15.75;100.00;100696.75;4957464;28;20612;-76
2023/06/11 02:14:48;;;;;;;0.50;0.50;;;;;;;15.67;100.00;100695.69;4974907;28;20225;-76
2023/06/11 02:17:14;;;;;;;0.23;0.23;;;;;;;15.53;100.00;100697.09;4974352;28;20225;-76
2023/06/11 02:19:39;;;;;;;0.37;0.37;;;;;;;15.32;100.00;100692.41;4974595;28;20548;-76
2023/06/11 02:22:04;;;;;;;0.00;0.00;;;;;;;15.22;100.00;100698.34;4974580;28;20221;-76
2023/06/11 02:24:30;;;;;;;0.63;0.63;;;;;;;15.46;100.00;100708.66;4974495;28;20237;-76
2023/06/11 02:26:55;;;;;;;0.00;0.00;;;;;;;15.54;100.00;100690.47;4974542;28;20208;-76
2023/06/11 02:29:20;;;;;;;0.57;0.57;;;;;;;15.60;100.00;100700.13;4973896;28;20182;-74
2023/06/11 02:31:46;;;;;;;0.00;0.00;;;;;;;15.60;100.00;100705.66;4956400;28;20232;-75
2023/06/11 02:34:11;;;;;;;0.20;0.20;;;;;;;15.58;100.00;100694.13;4956834;28;21739;-75
2023/06/11 02:36:37;;;;;;;0.00;0.00;;;;;;;15.63;100.00;100699.47;4974407;28;20193;-76
2023/06/11 02:39:03;;;;;;;0.20;0.20;;;;;;;15.53;100.00;100700.66;4973584;28;20182;-76
2023/06/11 02:41:28;;;;;;;0.37;0.37;;;;;;;15.43;100.00;100695.56;4974074;28;20218;-76
2023/06/11 02:43:54;;;;;;;0.00;0.00;;;;;;;15.52;100.00;100704.56;4974135;28;20236;-76
2023/06/11 02:46:19;;;;;;;0.87;0.53;;;;;;;15.42;100.00;100696.72;4974003;28;20209;-74
2023/06/11 02:48:45;;;;;;;0.30;0.30;;;;;;;15.42;100.00;100704.97;4973611;28;20189;-76
2023/06/11 02:51:10;;;;;;;0.00;0.00;;;;;;;15.40;100.00;100702.56;4956485;28;20182;-76
2023/06/11 02:53:35;;;;;;;0.00;0.00;;;;;;;15.46;100.00;100709.47;4973799;28;20256;-76
2023/06/11 02:56:01;;;;;;;0.00;0.00;;;;;;;15.50;100.00;100714.31;4956672;28;20491;-76
2023/06/11 02:58:26;;;;;;;0.67;0.67;;;;;;;15.42;100.00;100708.53;4956314;28;20182;-76
2023/06/11 03:00:51;;;;;;;0.00;0.00;;;;;;;15.37;100.00;100708.75;4973395;28;20178;-76
2023/06/11 03:03:16;;;;;;;0.00;0.00;;;;;;;15.34;100.00;100706.69;4956199;28;20217;-75
2023/06/11 03:05:42;;;;;;;0.17;0.17;;;;;;;15.26;100.00;100698.47;4973863;28;20206;-76
2023/06/11 03:08:07;;;;;;;0.10;0.10;;;;;;;15.25;100.00;100707.88;4973553;28;20185;-76
2023/06/11 03:10:32;;;;;;;0.00;0.00;;;;;;;15.29;100.00;100714.31;4973245;28;20656;-76
2023/06/11 03:12:58;;;;;;;0.00;0.00;;;;;;;15.37;100.00;100710.69;4973409;28;20208;-76
2023/06/11 03:15:23;;;;;;;0.00;0.00;;;;;;;15.34;100.00;100712.19;4973429;28;20327;-76
2023/06/11 03:17:48;;;;;;;0.00;0.00;;;;;;;15.38;100.00;100717.81;4973514;28;20727;-76
2023/06/11 03:20:13;;;;;;;0.00;0.00;;;;;;;15.41;100.00;100726.19;4973122;28;20184;-76
2023/06/11 03:22:39;;;;;;;0.47;0.47;;;;;;;15.39;100.00;100714.72;4973214;28;20213;-76
2023/06/11 03:25:05;;;;;;;0.00;0.00;;;;;;;15.34;100.00;100720.44;4956091;28;20190;-76
2023/06/11 03:27:30;;;;;;;0.10;0.10;;;;;;;15.40;100.00;100723.78;4973282;28;20178;-76
2023/06/11 03:29:56;;;;;;;0.00;0.00;;;;;;;15.42;100.00;100725.06;4972925;28;20648;-76
2023/06/11 03:32:21;;;;;;;0.00;0.00;;;;;;;15.43;100.00;100723.09;4973107;28;20676;-76
2023/06/11 03:34:46;;;;;;;0.00;0.00;;;;;;;15.42;100.00;100727.81;4973370;28;20402;-76
2023/06/11 03:37:12;;;;;;;0.00;0.00;;;;;;;15.48;100.00;100725.66;4973131;28;20194;-75
2023/06/11 03:39:37;;;;;;;0.00;0.00;;;;;;;15.43;100.00;100734.13;4976330;28;20553;-78
2023/06/11 03:42:03;;;;;;;0.00;0.00;;;;;;;15.48;100.00;100736.69;4977898;28;20198;-78
2023/06/11 03:44:28;;;;;;;0.00;0.00;;;;;;;15.56;100.00;100734.97;4973051;28;20651;-75
2023/06/11 03:46:53;;;;;;;0.00;0.00;;;;;;;15.68;100.00;100730.38;4955493;28;20196;-76
2023/06/11 03:49:19;;;;;;;0.00;0.00;;;;;;;15.73;100.00;100732.91;4955183;28;20217;-76
2023/06/11 03:51:44;;;;;;;0.00;0.00;;;;;;;15.80;100.00;100729.63;4972670;28;20178;-75
2023/06/11 03:54:09;;;;;;;0.00;0.00;;;;;;;15.81;100.00;100728.47;4972832;28;20220;-76
2023/06/11 03:56:34;;;;;;;0.00;0.00;;;;;;;15.61;100.00;100727.34;4955550;28;20626;-76
2023/06/11 03:59:00;;;;;;;0.53;0.47;;;;;;;15.57;100.00;100725.56;4972261;28;20182;-76
2023/06/11 04:01:27;;;;;;;0.00;0.00;;;;;;;15.56;100.00;100730.28;4955312;28;20201;-76
2023/06/11 04:03:52;;;;;;;0.00;0.00;;;;;;;15.65;100.00;100736.56;4972314;28;20284;-76
2023/06/11 04:06:18;;;;;;;0.23;0.23;;;;;;;15.70;100.00;100733.59;4972599;28;20189;-76
2023/06/11 04:08:43;;;;;;;2.20;2.10;;;;;;;15.73;100.00;100732.09;4972108;28;20209;-76
2023/06/11 04:11:08;;;;;;;0.00;0.00;;;;;;;15.70;100.00;100728.06;4955110;28;20240;-75
2023/06/11 04:13:34;;;;;;;0.00;0.00;;;;;;;15.58;100.00;100733.50;4972439;28;20194;-75
2023/06/11 04:15:59;;;;;;;0.00;0.00;;;;;;;15.56;100.00;100735.78;4955360;28;20647;-78
2023/06/11 04:18:25;;;;;;;0.00;0.00;;;;;;;15.55;100.00;100736.94;4974857;28;20186;-76
2023/06/11 04:20:51;;;;;;;0.00;0.00;;;;;;;15.53;100.00;100738.41;4972360;28;20196;-76
2023/06/11 04:23:16;;;;;;;0.40;0.40;;;;;;;15.61;100.00;100745.81;4955117;28;20586;-76
2023/06/11 04:25:43;;;;;;;0.00;0.00;;;;;;;15.62;100.00;100742.75;4972980;28;20242;-77
2023/06/11 04:28:09;;;;;;;0.00;0.00;;;;;;;15.65;100.00;100741.25;4958686;28;20584;-76
2023/06/11 04:30:34;;;;;;;0.57;0.33;;;;;;;15.68;100.00;100740.59;4971919;28;20213;-75
2023/06/11 04:33:03;;;;;;;0.00;0.00;;;;;;;15.77;100.00;100736.59;4972326;28;20220;-74
2023/06/11 04:35:34;;;;;;;0.00;0.00;;;;;;;15.88;100.00;100750.75;4972517;28;20200;-75
2023/06/11 04:38:02;;;;;;;0.00;0.00;;;;;;;16.01;100.00;100748.84;4972523;28;20560;-76
2023/06/11 04:40:28;;;;;;;0.00;0.00;;;;;;;16.03;100.00;100736.31;4955106;28;20650;-76
2023/06/11 04:42:53;;;;;;;0.00;0.00;;;;;;;16.00;100.00;100738.97;4972295;28;20209;-76
2023/06/11 04:45:20;;;;;;;0.97;0.97;;;;;;;15.96;100.00;100740.78;4973835;28;20228;-74
2023/06/11 04:47:46;;;;;;;0.23;0.23;;;;;;;15.94;100.00;100735.63;4973646;28;20264;-77
2023/06/11 04:50:12;;;;;;;0.00;0.00;;;;;;;16.01;100.00;100748.84;4973641;28;20683;-76
2023/06/11 04:52:38;;;;;;;0.00;0.00;;;;;;;16.02;100.00;100739.41;4972600;28;20344;-75
2023/06/11 04:55:05;;;;;;;0.20;0.20;;;;;;;16.09;100.00;100745.19;4955258;28;20189;-76
2023/06/11 04:57:34;;;;;;;0.00;0.00;;;;;;;16.03;100.00;100746.53;4954525;28;20620;-76
2023/06/11 04:59:59;;;;;;;0.87;0.87;;;;;;;16.10;100.00;100738.53;4954310;28;20209;-75
2023/06/11 05:02:26;;;;;;;0.30;0.30;;;;;;;16.15;100.00;100748.53;4971992;28;20300;-76
2023/06/11 05:04:53;;;;;;;0.17;0.17;;;;;;;16.19;100.00;100735.66;4971882;28;20193;-73
2023/06/11 05:07:19;;;;;;;0.90;0.33;;;;;;;16.22;100.00;100735.81;4971925;28;20714;-76
2023/06/11 05:09:45;;;;;;;0.00;0.00;;;;;;;16.24;100.00;100738.22;4971631;28;20184;-76
2023/06/11 05:12:10;;;;;;;1.20;1.20;;;;;;;16.30;100.00;100747.88;4971684;28;20185;-76
2023/06/11 05:14:36;;;;;;;0.27;0.27;;;;;;;16.42;100.00;100739.59;4972026;28;20178;-76
2023/06/11 05:17:02;;;;;;;0.40;0.40;;;;;;;16.53;100.00;100745.50;4971897;28;20247;-76
2023/06/11 05:19:28;;;;;;;0.73;0.50;;;;;;;16.49;100.00;100742.63;4971071;28;20298;-74
2023/06/11 05:21:53;;;;;;;0.00;0.00;;;;;;;16.46;100.00;100742.47;4971442;28;20269;-75
2023/06/11 05:24:19;;;;;;;0.40;0.40;;;;;;;16.50;100.00;100744.22;4971827;28;20233;-76
2023/06/11 05:26:45;;;;;;;0.40;0.40;;;;;;;16.53;100.00;100740.78;4972916;28;20306;-78
2023/06/11 05:29:11;;;;;;;0.00;0.00;;;;;;;16.57;100.00;100740.88;4955051;28;20189;-74
2023/06/11 05:31:36;;;;;;;1.73;1.63;;;;;;;16.58;100.00;100748.81;4971849;28;20205;-76
2023/06/11 05:34:02;;;;;;;0.70;0.70;;;;;;;16.70;100.00;100747.25;4954056;28;20301;-76
2023/06/11 05:36:27;;;;;;;0.37;0.37;;;;;;;16.83;99.84;100744.13;4971879;28;20212;-75
2023/06/11 05:38:53;;;;;;;0.50;0.50;;;;;;;16.90;99.70;100740.78;4971142;28;20186;-74
2023/06/11 05:41:19;;;;;;;0.60;0.60;;;;;;;16.93;99.06;100746.44;4971519;28;20182;-75
2023/06/11 05:43:45;;;;;;;0.70;0.67;;;;;;;16.90;99.10;100743.53;4953991;28;20284;-77
2023/06/11 05:46:12;;;;;;;1.13;1.13;;;;;;;17.03;98.92;100747.91;4971488;28;20228;-76
2023/06/11 05:48:37;;;;;;;0.10;0.10;;;;;;;17.09;98.60;100754.00;4972411;28;20232;-80
2023/06/11 05:51:02;;;;;;;0.77;0.77;;;;;;;17.22;97.55;100752.81;4971868;28;20190;-76
2023/06/11 05:53:28;;;;;;;0.10;0.10;;;;;;;17.23;95.38;100752.47;4971459;28;20252;-76
2023/06/11 05:55:53;;;;;;;0.33;0.30;;;;;;;17.35;94.71;100751.63;4971323;28;20276;-75
2023/06/11 05:58:18;;;;;;;0.23;0.23;;;;;;;17.49;94.08;100756.75;4972048;28;20185;-76
2023/06/11 06:00:43;;;;;;;0.00;0.00;;;;;;;17.52;92.88;100761.59;4953754;28;20186;-74
2023/06/11 06:03:09;;;;;;;0.20;0.20;;;;;;;17.65;92.78;100765.09;4970967;28;20217;-75
2023/06/11 06:05:34;;;;;;;3.33;1.23;;;;;;;17.72;92.23;100755.09;4955049;28;20198;-75
2023/06/11 06:08:00;;;;;;;0.43;0.43;;;;;;;17.66;91.58;100756.50;4957309;28;20264;-74
2023/06/11 06:10:25;;;;;;;1.63;1.53;;;;;;;17.82;91.85;100760.13;4973890;28;20253;-75
2023/06/11 06:12:50;;;;;;;0.10;0.10;;;;;;;17.95;91.45;100758.13;4974450;28;20209;-74
2023/06/11 06:15:16;;;;;;;0.57;0.57;;;;;;;18.00;91.25;100765.34;4975284;28;20191;-76
2023/06/11 06:17:41;;;;;;;0.97;0.93;;;;;;;18.14;91.58;100768.50;4957068;28;20201;-75
2023/06/11 06:20:08;;;;;;;0.70;0.70;;;;;;;18.17;89.67;100766.97;4973998;28;20268;-74
2023/06/11 06:22:34;;;;;;;0.13;0.13;;;;;;;18.10;89.21;100764.84;4974318;28;20264;-75
2023/06/11 06:24:59;;;;;;;0.50;0.50;;;;;;;18.24;89.31;100765.22;4957021;28;20189;-76
2023/06/11 06:27:24;;;;;;;0.63;0.63;;;;;;;18.26;88.76;100762.09;4974314;28;20181;-76
2023/06/11 06:29:50;;;;;;;2.43;2.23;;;;;;;18.37;87.68;100755.69;4956740;28;20649;-76
2023/06/11 06:32:15;;;;;;;0.00;0.00;;;;;;;18.39;87.09;100758.88;4973772;28;20676;-74
2023/06/11 06:34:40;;;;;;;2.10;2.00;;;;;;;18.53;87.01;100763.97;4956868;28;20280;-75
2023/06/11 06:37:06;;;;;;;1.23;1.13;;;;;;;18.51;86.23;100757.16;4974171;28;20213;-76
2023/06/11 06:39:31;;;;;;;1.43;1.33;;;;;;;18.60;86.45;100766.09;4973542;28;20181;-74
2023/06/11 06:41:56;;;;;;;2.03;2.00;;;;;;;18.81;86.22;100763.09;4956577;28;20423;-76
2023/06/11 06:44:22;;;;;;;1.73;1.63;;;;;;;18.81;84.91;100760.34;4956740;28;20657;-75
2023/06/11 06:46:47;;;;;;;3.67;3.37;;;;;;;18.88;83.84;100766.03;4956810;28;20186;-76
2023/06/11 06:49:13;;;;;;;0.00;0.00;;;;;;;18.91;84.28;100765.31;4973618;28;20204;-77
2023/06/11 06:51:38;;;;;;;0.00;0.00;;;;;;;19.12;83.40;100765.00;4962318;28;20189;-77
2023/06/11 06:54:03;;;;;;;0.87;0.87;;;;;;;19.30;82.29;100760.66;4957420;28;20317;-76
2023/06/11 06:56:29;;;;;;;0.50;0.50;;;;;;;19.40;82.44;100762.06;4956636;28;20652;-76
2023/06/11 06:58:54;;;;;;;0.50;0.50;;;;;;;19.49;80.39;100751.53;4973758;28;20196;-74
2023/06/11 07:01:19;;;;;;;1.50;1.50;;;;;;;19.67;80.52;100761.06;4972270;28;20183;-76
2023/06/11 07:03:45;;;;;;;0.40;0.40;;;;;;;19.51;78.29;100747.25;4972117;28;20224;-76
2023/06/11 07:06:10;;;;;;;1.60;1.50;;;;;;;19.64;79.50;100756.25;4956455;28;20189;-73
2023/06/11 07:08:38;;;;;;;1.07;0.77;;;;;;;19.64;77.94;100753.47;4973727;28;20289;-76
2023/06/11 07:11:03;;;;;;;2.60;2.50;;;;;;;19.84;76.96;100743.19;4956324;28;20185;-76
2023/06/11 07:13:28;;;;;;;2.43;2.33;;;;;;;19.90;76.73;100748.06;4974552;28;20272;-75
2023/06/11 07:15:54;;;;;;;0.83;0.83;;;;;;;20.03;76.96;100750.66;4974160;28;20205;-76
2023/06/11 07:18:19;;;;;;;3.23;2.93;;;;;;;20.10;75.29;100746.03;4953252;28;20201;-76
2023/06/11 07:20:45;;;;;;;0.53;0.53;;;;;;;20.20;75.48;100752.97;4976677;28;20193;-77
2023/06/11 07:23:12;;;;;;;0.00;0.00;;;;;;;20.42;75.43;100757.75;4979872;28;20645;-76
2023/06/11 07:25:39;;;;;;;1.90;1.80;;;;;;;20.41;74.79;100761.72;4962442;28;20669;-77
2023/06/11 07:28:05;;;;;;;0.20;0.20;;;;;;;20.59;73.77;100752.88;4970544;28;20182;-77
2023/06/11 07:30:32;;;;;;;0.83;0.83;;;;;;;20.65;73.25;100754.97;4957783;28;20210;-77
2023/06/11 07:32:58;;;;;;;0.47;0.47;;;;;;;20.71;74.48;100766.56;4975163;28;20313;-76
2023/06/11 07:35:24;;;;;;;2.57;2.37;;;;;;;20.70;72.73;100759.41;4984176;28;20553;-77
2023/06/11 07:37:51;;;;;;;2.10;0.87;;;;;;;20.71;73.02;100755.47;4953874;28;20183;-77
2023/06/11 07:40:17;;;;;;;0.93;0.57;;;;;;;20.76;73.15;100753.16;4960815;28;20194;-77
2023/06/11 07:42:43;;;;;;;1.23;1.13;;;;;;;20.90;72.04;100751.78;4956863;29;20238;-77
2023/06/11 07:45:09;;;;;;;4.90;4.43;;;;;;;20.72;71.31;100748.72;4967394;28;20186;-76
2023/06/11 07:47:35;;;;;;;1.43;1.37;;;;;;;20.82;70.86;100750.06;4972515;28;20198;-77
2023/06/11 07:50:01;;;;;;;3.47;3.27;;;;;;;20.85;70.31;100750.13;4979674;28;20187;-77
2023/06/11 07:52:27;;;;;;;0.00;0.00;;;;;;;20.80;71.71;100759.56;4962775;28;20213;-76
2023/06/11 07:54:55;;;;;;;0.17;0.17;;;;;;;20.98;71.93;100765.41;4970025;28;20192;-77
2023/06/11 07:57:20;;;;;;;4.90;3.43;;;;;;;20.84;70.13;100751.31;4970329;28;20191;-78
2023/06/11 07:59:46;;;;;;;0.13;0.13;;;;;;;21.05;71.37;100756.38;4976546;28;20183;-78
2023/06/11 08:02:11;;;;;;;0.03;0.03;;;;;;;21.25;70.65;100752.31;4972889;28;20258;-77
2023/06/11 08:04:37;;;;;;;0.70;0.70;;;;;;;21.43;70.38;100749.78;4975118;28;20633;-79
2023/06/11 08:07:04;;;;;;;0.83;0.83;;;;;;;21.50;70.55;100751.84;4972763;28;20739;-77
2023/06/11 08:09:33;;;;;;;1.90;1.80;;;;;;;21.45;68.87;100741.88;4983635;28;20191;-79
2023/06/11 08:11:58;;;;;;;0.20;0.20;;;;;;;21.62;67.81;100743.25;4977063;28;20199;-79
2023/06/11 08:14:24;;;;;;;0.90;0.90;;;;;;;21.76;68.19;100739.84;4957795;28;20217;-82
2023/06/11 08:16:50;;;;;;;1.23;0.83;;;;;;;21.70;67.31;100733.84;4976071;28;20188;-76
2023/06/11 08:19:15;;;;;;;0.03;0.03;;;;;;;21.92;68.02;100745.97;4977135;28;20189;-78
2023/06/11 08:21:41;;;;;;;1.30;1.30;;;;;;;21.93;66.37;100736.44;4978901;28;20199;-78
2023/06/11 08:24:07;;;;;;;0.93;0.93;;;;;;;22.17;68.53;100744.28;4976705;28;20259;-82
2023/06/11 08:26:32;;;;;;;0.90;0.90;;;;;;;22.31;66.44;100737.25;4956120;28;20194;-81
2023/06/11 08:28:58;;;;;;;0.10;0.10;;;;;;;22.22;64.60;100732.00;4955182;28;20220;-83
2023/06/11 08:31:24;;;;;;;0.50;0.50;;;;;;;22.43;67.31;100746.13;4955761;28;20276;-82
2023/06/11 08:33:50;;;;;;;0.23;0.23;;;;;;;22.35;64.10;100726.94;4976243;28;20209;-83
2023/06/11 08:36:16;;;;;;;0.10;0.10;;;;;;;22.50;65.62;100737.81;4959751;28;20252;-77
2023/06/11 08:38:41;;;;;;;7.13;4.30;;;;;;;22.30;64.05;100725.34;4976414;28;20178;-77
2023/06/11 08:41:07;;;;;;;1.67;1.57;;;;;;;22.36;63.34;100725.75;4976820;28;20189;-76
2023/06/11 08:43:33;;;;;;;0.00;0.00;;;;;;;22.71;64.44;100731.63;4978192;28;20213;-78
2023/06/11 08:45:58;;;;;;;0.93;0.93;;;;;;;22.95;63.04;100726.63;4978570;28;20241;-78
2023/06/11 08:48:24;;;;;;;0.00;0.00;;;;;;;22.97;62.02;100727.84;4960495;28;20193;-78
2023/06/11 08:50:50;;;;;;;1.70;1.60;;;;;;;23.07;62.19;100726.31;4976773;28;20239;-81
2023/06/11 08:53:16;;;;;;;4.63;2.23;;;;;;;23.12;61.69;100725.94;4976699;28;20193;-77
2023/06/11 08:55:44;;;;;;;0.27;0.27;;;;;;;22.98;61.55;100726.66;4974315;28;20196;-77
2023/06/11 08:58:11;;;;;;;3.40;3.10;;;;;;;22.79;61.77;100721.31;4973952;28;20174;-77
2023/06/11 09:00:37;;;;;;;2.93;2.80;;;;;;;22.85;61.09;100723.38;4974904;28;20189;-77
2023/06/11 09:03:04;;;;;;;0.10;0.10;;;;;;;22.92;61.05;100717.06;4973667;28;20232;-77
2023/06/11 09:05:30;;;;;;;1.13;1.10;;;;;;;23.06;61.99;100719.94;4973146;28;20193;-77
2023/06/11 09:07:57;;;;;;;4.17;1.30;;;;;;;23.35;60.34;100715.31;4973840;28;20216;-76
2023/06/11 09:10:22;;;;;;;0.47;0.47;;;;;;;23.49;59.49;100710.97;4955903;28;20186;-76
2023/06/11 09:12:48;;;;;;;3.63;0.53;;;;;;;23.47;58.37;100702.22;4956542;28;20206;-76
2023/06/11 09:15:15;;;;;;;4.63;4.23;;;;;;;23.36;58.09;100697.38;4973933;28;20190;-76
2023/06/11 09:17:46;;;;;;;0.30;0.30;;;;;;;23.58;58.41;100706.66;4956976;28;20233;-77
2023/06/11 09:20:14;;;;;;;1.07;1.07;;;;;;;23.72;57.84;100701.13;4973252;28;20178;-77
2023/06/11 09:22:44;;;;;;;1.27;1.27;;;;;;;23.68;58.00;100703.09;4973991;28;20202;-78
2023/06/11 09:25:16;;;;;;;0.57;0.57;;;;;;;23.68;56.48;100689.16;4956765;28;20190;-77
2023/06/11 09:27:43;;;;;;;1.17;1.17;;;;;;;23.85;57.67;100698.75;4973847;28;20186;-77
2023/06/11 09:30:08;;;;;;;2.67;2.30;;;;;;;23.88;54.96;100681.22;4973032;28;20216;-77
2023/06/11 09:32:41;;;;;;;0.77;0.77;;;;;;;24.00;55.45;100691.19;4973610;28;20930;-77
2023/06/11 09:35:08;;;;;;;2.43;2.23;;;;;;;23.99;52.64;100673.66;4973680;28;20182;-77
2023/06/11 09:37:50;;;;;;;2.00;1.20;;;;;;;24.26;52.78;100682.44;4956330;28;20188;-77
2023/06/11 09:40:17;;;;;;;0.40;0.40;;;;;;;24.51;52.80;100679.69;4975120;28;20186;-77
2023/06/11 09:42:45;;;;;;;4.10;2.10;;;;;;;24.34;49.24;100666.53;4959283;28;20205;-77
2023/06/11 09:45:18;;;;;;;0.20;0.20;;;;;;;24.49;49.81;100670.91;4959769;28;20233;-77
2023/06/11 09:47:47;;;;;;;2.97;1.63;;;;;;;24.63;49.86;100676.47;4977569;28;20183;-77
2023/06/11 09:50:17;;;;;;;1.70;1.60;;;;;;;24.66;50.13;100680.47;4976858;28;20178;-77
2023/06/11 09:52:43;;;;;;;0.53;0.53;;;;;;;24.65;49.49;100662.09;4976653;28;20248;-77
2023/06/11 09:55:10;;;;;;;1.33;1.23;;;;;;;24.86;49.39;100676.00;4959343;28;20232;-77
2023/06/11 09:57:38;;;;;;;1.20;1.10;;;;;;;24.87;48.39;100662.81;4959445;28;20240;-75
2023/06/11 10:00:07;;;;;;;0.83;0.83;;;;;;;24.88;46.93;100665.25;4976215;28;20174;-77
2023/06/11 10:02:33;;;;;;;1.80;1.70;;;;;;;24.92;47.06;100666.03;4958938;28;20216;-77
2023/06/11 10:04:59;;;;;;;3.10;2.23;;;;;;;24.91;46.11;100658.84;4959067;28;20193;-77
2023/06/11 10:07:25;;;;;;;0.50;0.33;;;;;;;25.02;46.17;100666.41;4958864;28;20181;-76
2023/06/11 10:09:52;;;;;;;1.03;1.00;;;;;;;25.09;45.37;100655.22;4975442;28;20186;-77
2023/06/11 10:12:20;;;;;;;0.27;0.23;;;;;;;25.30;45.27;100666.31;4977532;28;20205;-78
2023/06/11 10:14:50;;;;;;;0.53;0.53;;;;;;;25.25;44.89;100665.94;4960082;28;20188;-77
2023/06/11 10:17:16;;;;;;;1.90;1.50;;;;;;;25.33;42.47;100640.34;4976988;28;20178;-77
2023/06/11 10:19:41;;;;;;;1.73;1.03;;;;;;;25.31;42.39;100642.72;4959569;28;20245;-77
2023/06/11 10:22:06;;;;;;;5.10;2.50;;;;;;;25.13;39.31;100611.25;4959328;28;20186;-77
2023/06/11 10:24:32;;;;;;;0.93;0.93;;;;;;;25.37;38.67;100621.53;4976544;28;20219;-77
2023/06/11 10:27:03;;;;;;;0.60;0.60;;;;;;;25.72;39.88;100640.13;4976533;28;20186;-77
2023/06/11 10:29:29;;;;;;;0.87;0.87;;;;;;;25.74;37.91;100628.50;4958549;28;20226;-76
2023/06/11 10:31:58;;;;;;;0.70;0.70;;;;;;;25.58;36.31;100628.19;4979052;28;20197;-77
2023/06/11 10:34:23;;;;;;;1.47;0.90;;;;;;;25.69;36.53;100637.34;4961316;28;20209;-77
2023/06/11 10:36:49;;;;;;;1.00;1.00;;;;;;;25.86;36.45;100638.44;4959572;28;20196;-77
2023/06/11 10:39:22;;;;;;;0.27;0.27;;;;;;;25.88;36.66;100638.81;4978137;28;20549;-77
2023/06/11 10:41:58;;;;;;;2.07;0.73;;;;;;;25.71;35.61;100632.13;4978424;28;20240;-77
2023/06/11 10:44:24;;;;;;;2.10;0.80;;;;;;;25.64;35.87;100637.75;4979922;28;20255;-77
2023/06/11 10:46:52;;;;;;;1.50;1.17;;;;;;;25.73;36.91;100650.09;4981976;28;20182;-77
2023/06/11 10:49:22;;;;;;;1.87;1.70;;;;;;;25.79;35.36;100634.47;4978616;28;20229;-78
2023/06/11 10:51:49;;;;;;;0.53;0.50;;;;;;;25.86;34.63;100633.63;4962621;28;20209;-77
2023/06/11 10:54:25;;;;;;;1.17;1.07;;;;;;;25.89;35.30;100640.41;4963079;28;20202;-78
2023/06/11 10:56:50;;;;;;;0.90;0.90;;;;;;;26.04;36.00;100634.31;4980461;28;20231;-77
2023/06/11 10:59:17;;;;;;;5.07;0.63;;;;;;;26.00;36.77;100646.72;4979215;28;20644;-77
2023/06/11 11:01:42;;;;;;;1.70;1.60;;;;;;;25.59;35.37;100624.97;4978828;28;20535;-77
2023/06/11 11:04:08;;;;;;;1.43;0.80;;;;;;;25.78;35.95;100635.69;4979289;28;20216;-77
2023/06/11 11:06:36;;;;;;;1.00;0.97;;;;;;;25.90;34.83;100616.81;4963155;28;20680;-77
2023/06/11 11:09:02;;;;;;;1.20;1.10;;;;;;;26.05;34.38;100624.69;4978633;28;20186;-77
2023/06/11 11:11:28;;;;;;;1.47;1.37;;;;;;;25.93;34.59;100616.00;4978362;28;20187;-78
2023/06/11 11:13:55;;;;;;;0.57;0.57;;;;;;;26.07;36.12;100632.69;4979322;28;20576;-76
2023/06/11 11:16:20;;;;;;;0.50;0.50;;;;;;;26.33;35.90;100628.44;4979334;28;20182;-78
2023/06/11 11:18:47;;;;;;;0.10;0.10;;;;;;;26.35;35.51;100626.03;4979651;28;20199;-78